| time (UTC) | temp F | wind direction | speed MPH | gust MPH | rain 1hr in | rain 24hr in | rain mn in | humidity % | barometer mb |
| 20260506061504 | 38 | 0 | 0.0 | 0.0 | 0.00 | 0.00 | 0.00 | 88 | 1015.9 |
| 20260506061003 | 38 | 0 | 0.0 | 0.0 | 0.00 | 0.00 | 0.00 | 88 | 1015.7 |
| 20260506060504 | 38 | 0 | 0.0 | 0.0 | 0.00 | 0.00 | 0.00 | 87 | 1015.7 |
| 20260506051024 | 37 | 0 | 0.0 | 0.0 | 0.00 | 0.00 | 0.00 | 85 | 1015.7 |
| 20260506050502 | 37 | 0 | 1.0 | 1.0 | 0.00 | 0.00 | 0.00 | 85 | 1015.7 |
| 20260506045002 | 37 | 0 | 3.0 | 3.0 | 0.00 | 0.00 | 0.00 | 85 | 1015.8 |
| 20260506044504 | 37 | 0 | 3.0 | 3.0 | 0.00 | 0.00 | 0.00 | 86 | 1015.8 |
| 20260506044023 | 37 | 0 | 3.0 | 3.0 | 0.00 | 0.00 | 0.00 | 86 | 1015.7 |
| 20260506043502 | 37 | 0 | 1.0 | 1.0 | 0.00 | 0.00 | 0.00 | 86 | 1015.7 |
| 20260506043004 | 37 | 0 | 1.0 | 1.0 | 0.00 | 0.00 | 0.00 | 86 | 1015.7 |
| 20260506042503 | 37 | 0 | 1.0 | 1.0 | 0.00 | 0.00 | 0.00 | 86 | 1015.8 |
| 20260506042003 | 37 | 0 | 1.0 | 1.0 | 0.00 | 0.00 | 0.00 | 86 | 1015.8 |
| 20260506041503 | 37 | 0 | 1.0 | 1.0 | 0.00 | 0.00 | 0.00 | 84 | 1015.8 |
| 20260506041004 | 37 | 0 | 1.0 | 1.0 | 0.00 | 0.00 | 0.00 | 84 | 1015.8 |
| 20260506040502 | 37 | 0 | 0.0 | 0.0 | 0.00 | 0.00 | 0.00 | 84 | 1015.8 |
| 20260506040004 | 37 | 0 | 1.0 | 1.0 | 0.00 | 0.00 | 0.00 | 84 | 1015.8 |
| 20260506035523 | 37 | 0 | 1.0 | 1.0 | 0.00 | 0.00 | 0.00 | 84 | 1015.8 |
| 20260506035002 | 37 | 0 | 1.0 | 1.0 | 0.00 | 0.00 | 0.00 | 84 | 1015.8 |
| 20260506034503 | 37 | 0 | 1.0 | 1.0 | 0.00 | 0.00 | 0.00 | 84 | 1015.9 |
| 20260506034002 | 37 | 0 | 0.0 | 0.0 | 0.00 | 0.00 | 0.00 | 84 | 1015.9 |
| 20260506033503 | 37 | 0 | 0.0 | 0.0 | 0.00 | 0.00 | 0.00 | 83 | 1015.9 |
| 20260506033004 | 37 | 0 | 0.0 | 0.0 | 0.00 | 0.00 | 0.00 | 83 | 1015.9 |
| 20260506032502 | 37 | 0 | 0.0 | 0.0 | 0.00 | 0.00 | 0.00 | 83 | 1015.9 |
| 20260506032004 | 38 | 0 | 0.0 | 0.0 | 0.00 | 0.00 | 0.00 | 83 | 1016.0 |
| 20260506031524 | 38 | 0 | 0.0 | 0.0 | 0.00 | 0.00 | 0.00 | 82 | 1015.9 |
| 20260506031026 | 38 | 0 | 0.0 | 0.0 | 0.00 | 0.00 | 0.00 | 82 | 1015.9 |
| 20260506030504 | 38 | 0 | 1.0 | 1.0 | 0.00 | 0.00 | 0.00 | 82 | 1016.0 |
| 20260506030002 | 38 | 0 | 1.0 | 1.0 | 0.00 | 0.00 | 0.00 | 82 | 1015.9 |
| 20260506025504 | 38 | 0 | 1.0 | 1.0 | 0.00 | 0.00 | 0.00 | 82 | 1015.9 |
| 20260506025004 | 38 | 0 | 1.0 | 1.0 | 0.00 | 0.00 | 0.00 | 82 | 1015.9 |
| 20260506024503 | 38 | 0 | 1.0 | 1.0 | 0.00 | 0.00 | 0.00 | 82 | 1015.8 |
| 20260506024003 | 39 | 0 | 3.0 | 3.0 | 0.00 | 0.00 | 0.00 | 82 | 1015.8 |
| 20260506023503 | 38 | 0 | 3.0 | 3.0 | 0.00 | 0.00 | 0.00 | 82 | 1015.8 |
| 20260506023024 | 39 | 0 | 3.0 | 3.0 | 0.00 | 0.00 | 0.00 | 82 | 1015.9 |
| 20260506022503 | 39 | 0 | 1.0 | 1.0 | 0.00 | 0.00 | 0.00 | 82 | 1015.9 |
| 20260506022004 | 39 | 0 | 1.0 | 1.0 | 0.00 | 0.00 | 0.00 | 82 | 1015.9 |
| 20260506021503 | 39 | 0 | 1.0 | 1.0 | 0.00 | 0.00 | 0.00 | 81 | 1015.9 |
| 20260506021002 | 39 | 0 | 1.0 | 1.0 | 0.00 | 0.00 | 0.00 | 81 | 1016.0 |
| 20260506020504 | 39 | 0 | 4.0 | 4.0 | 0.00 | 0.00 | 0.00 | 81 | 1016.0 |
| 20260506020002 | 39 | 0 | 4.0 | 4.0 | 0.00 | 0.00 | 0.00 | 81 | 1016.0 |
| 20260506015502 | 39 | 33 | 0.0 | 4.0 | 0.00 | 0.00 | 0.00 | 82 | 1016.0 |
| 20260506015003 | 39 | 32 | 0.0 | 4.0 | 0.00 | 0.00 | 0.00 | 82 | 1016.0 |
| 20260506014504 | 39 | 18 | 1.0 | 3.0 | 0.00 | 0.00 | 0.00 | 82 | 1016.1 |
| 20260506014002 | 39 | 8 | 1.0 | 3.0 | 0.00 | 0.00 | 0.00 | 82 | 1016.1 |
| 20260506013502 | 39 | 0 | 0.0 | 3.0 | 0.00 | 0.00 | 0.00 | 82 | 1015.9 |
| 20260506013025 | 39 | 0 | 3.0 | 3.0 | 0.00 | 0.00 | 0.00 | 82 | 1016.0 |
| 20260506012524 | 39 | 0 | 3.0 | 3.0 | 0.00 | 0.00 | 0.00 | 82 | 1015.9 |
| 20260506012004 | 39 | 0 | 1.0 | 1.0 | 0.00 | 0.00 | 0.00 | 82 | 1016.0 |
| 20260506011502 | 39 | 0 | 1.0 | 1.0 | 0.00 | 0.00 | 0.00 | 82 | 1016.0 |
| 20260506011004 | 40 | 0 | 1.0 | 1.0 | 0.00 | 0.00 | 0.00 | 82 | 1016.0 |
| 20260506010503 | 40 | 0 | 1.0 | 1.0 | 0.00 | 0.00 | 0.00 | 82 | 1016.0 |
| 20260506010002 | 40 | 0 | 1.0 | 1.0 | 0.00 | 0.00 | 0.00 | 82 | 1016.1 |
| 20260506005502 | 40 | 0 | 3.0 | 3.0 | 0.00 | 0.00 | 0.00 | 82 | 1016.0 |
| 20260506005004 | 40 | 0 | 3.0 | 3.0 | 0.00 | 0.00 | 0.00 | 82 | 1016.0 |
| 20260506004504 | 40 | 0 | 3.0 | 3.0 | 0.00 | 0.00 | 0.00 | 82 | 1016.1 |
| 20260506004003 | 40 | 0 | 3.0 | 3.0 | 0.00 | 0.00 | 0.00 | 82 | 1016.1 |
| 20260506003503 | 40 | 0 | 3.0 | 3.0 | 0.00 | 0.00 | 0.00 | 82 | 1016.1 |
| 20260506003023 | 40 | 0 | 3.0 | 3.0 | 0.00 | 0.00 | 0.00 | 81 | 1016.1 |
| 20260506002504 | 41 | 0 | 3.0 | 3.0 | 0.00 | 0.00 | 0.00 | 81 | 1016.1 |
| 20260506002002 | 41 | 0 | 0.0 | 3.0 | 0.00 | 0.00 | 0.00 | 81 | 1016.2 |
| 20260506001504 | 41 | 0 | 0.0 | 3.0 | 0.00 | 0.00 | 0.00 | 81 | 1016.2 |
| 20260506001024 | 41 | 12 | 0.0 | 5.0 | 0.00 | 0.00 | 0.00 | 81 | 1016.2 |
| 20260506000502 | 41 | 14 | 0.0 | 5.0 | 0.00 | 0.00 | 0.00 | 81 | 1016.2 |
| 20260506000004 | 42 | 17 | 1.0 | 3.0 | 0.00 | 0.00 | 0.00 | 80 | 1016.2 |
| 20260505235503 | 42 | 15 | 1.0 | 4.0 | 0.00 | 0.00 | 0.00 | 80 | 1016.3 |
| 20260505235002 | 42 | 8 | 1.0 | 5.0 | 0.00 | 0.00 | 0.00 | 80 | 1016.3 |
| 20260505234504 | 42 | 355 | 1.0 | 5.0 | 0.00 | 0.00 | 0.00 | 80 | 1016.4 |
| 20260505234004 | 42 | 351 | 1.0 | 4.0 | 0.00 | 0.00 | 0.00 | 79 | 1016.3 |
| 20260505233503 | 42 | 358 | 0.0 | 4.0 | 0.00 | 0.00 | 0.00 | 79 | 1016.3 |
| 20260505233002 | 43 | 0 | 3.0 | 3.0 | 0.00 | 0.00 | 0.00 | 78 | 1016.4 |
| 20260505232502 | 43 | 0 | 3.0 | 3.0 | 0.00 | 0.00 | 0.00 | 78 | 1016.4 |
| 20260505232003 | 43 | 0 | 1.0 | 1.0 | 0.00 | 0.00 | 0.00 | 78 | 1016.4 |
| 20260505231502 | 43 | 0 | 1.0 | 1.0 | 0.00 | 0.00 | 0.00 | 78 | 1016.4 |
| 20260505231004 | 43 | 0 | 1.0 | 1.0 | 0.00 | 0.00 | 0.00 | 78 | 1016.4 |
| 20260505230503 | 44 | 0 | 1.0 | 1.0 | 0.00 | 0.00 | 0.00 | 77 | 1016.4 |
| 20260505230025 | 44 | 0 | 1.0 | 1.0 | 0.00 | 0.00 | 0.00 | 77 | 1016.4 |
| 20260505225525 | 44 | 0 | 3.0 | 3.0 | 0.00 | 0.00 | 0.00 | 77 | 1016.5 |
| 20260505225003 | 44 | 0 | 4.0 | 4.0 | 0.00 | 0.00 | 0.00 | 77 | 1016.5 |
| 20260505224524 | 44 | 0 | 4.0 | 4.0 | 0.00 | 0.00 | 0.00 | 77 | 1016.4 |
| 20260505224004 | 44 | 0 | 4.0 | 4.0 | 0.00 | 0.00 | 0.00 | 77 | 1016.5 |
| 20260505223524 | 44 | 0 | 0.0 | 4.0 | 0.00 | 0.00 | 0.00 | 76 | 1016.5 |
| 20260505223002 | 44 | 0 | 4.0 | 4.0 | 0.00 | 0.00 | 0.00 | 76 | 1016.4 |
| 20260505222524 | 44 | 9 | 0.0 | 3.0 | 0.00 | 0.00 | 0.00 | 75 | 1016.5 |
| 20260505222004 | 44 | 9 | 0.0 | 4.0 | 0.00 | 0.00 | 0.00 | 75 | 1016.5 |
| 20260505221502 | 44 | 27 | 1.0 | 7.0 | 0.00 | 0.00 | 0.00 | 75 | 1016.5 |
| 20260505221003 | 45 | 37 | 1.0 | 7.0 | 0.00 | 0.00 | 0.00 | 74 | 1016.4 |
| 20260505220502 | 45 | 37 | 1.0 | 5.0 | 0.00 | 0.00 | 0.00 | 75 | 1016.5 |
| 20260505220003 | 45 | 36 | 1.0 | 4.0 | 0.00 | 0.00 | 0.00 | 74 | 1016.5 |
| 20260505215505 | 45 | 42 | 1.0 | 7.0 | 0.00 | 0.00 | 0.00 | 74 | 1016.5 |
| 20260505215004 | 45 | 47 | 1.0 | 7.0 | 0.00 | 0.00 | 0.00 | 74 | 1016.4 |
| 20260505214504 | 45 | 41 | 1.0 | 7.0 | 0.00 | 0.00 | 0.00 | 74 | 1016.5 |
| 20260505214003 | 45 | 30 | 1.0 | 7.0 | 0.00 | 0.00 | 0.00 | 73 | 1016.5 |
| 20260505213503 | 46 | 38 | 1.0 | 7.0 | 0.00 | 0.00 | 0.00 | 73 | 1016.5 |
| 20260505213025 | 46 | 43 | 1.0 | 7.0 | 0.00 | 0.00 | 0.00 | 73 | 1016.5 |
| 20260505212504 | 46 | 61 | 1.0 | 5.0 | 0.00 | 0.00 | 0.00 | 73 | 1016.5 |
| 20260505212003 | 46 | 58 | 1.0 | 5.0 | 0.00 | 0.00 | 0.00 | 73 | 1016.6 |
| 20260505211524 | 46 | 46 | 2.0 | 5.0 | 0.00 | 0.00 | 0.00 | 73 | 1016.5 |
| 20260505211003 | 46 | 65 | 2.0 | 7.0 | 0.00 | 0.00 | 0.00 | 73 | 1016.5 |
| 20260505210503 | 46 | 76 | 2.0 | 10.0 | 0.00 | 0.00 | 0.00 | 73 | 1016.5 |
| 20260505210004 | 46 | 75 | 3.0 | 10.0 | 0.00 | 0.00 | 0.00 | 71 | 1016.7 |
| 20260505205503 | 46 | 82 | 3.0 | 10.0 | 0.00 | 0.00 | 0.00 | 73 | 1016.6 |
| 20260505205003 | 46 | 81 | 3.0 | 10.0 | 0.00 | 0.00 | 0.00 | 74 | 1016.6 |
| 20260505204504 | 46 | 92 | 2.0 | 8.0 | 0.00 | 0.00 | 0.00 | 75 | 1016.7 |
| 20260505204002 | 46 | 110 | 2.0 | 8.0 | 0.00 | 0.00 | 0.00 | 75 | 1016.6 |
| 20260505203525 | 46 | 77 | 2.0 | 8.0 | 0.00 | 0.00 | 0.00 | 77 | 1016.5 |
| 20260505203004 | 46 | 68 | 2.0 | 8.0 | 0.00 | 0.00 | 0.00 | 77 | 1016.5 |
| 20260505202503 | 46 | 88 | 2.0 | 10.0 | 0.00 | 0.00 | 0.00 | 77 | 1016.5 |
| 20260505202023 | 47 | 88 | 2.0 | 10.0 | 0.00 | 0.00 | 0.00 | 77 | 1016.5 |
| 20260505201503 | 47 | 83 | 1.0 | 8.0 | 0.00 | 0.00 | 0.00 | 77 | 1016.5 |
| 20260505201003 | 47 | 84 | 1.0 | 8.0 | 0.00 | 0.00 | 0.00 | 78 | 1016.5 |
| 20260505200503 | 47 | 82 | 2.0 | 8.0 | 0.00 | 0.00 | 0.00 | 77 | 1016.5 |
| 20260505200004 | 47 | 69 | 2.0 | 5.0 | 0.00 | 0.00 | 0.00 | 78 | 1016.5 |
| 20260505195504 | 47 | 72 | 3.0 | 11.0 | 0.00 | 0.00 | 0.00 | 77 | 1016.5 |
| 20260505195004 | 47 | 83 | 3.0 | 11.0 | 0.00 | 0.00 | 0.00 | 76 | 1016.5 |
| 20260505194525 | 47 | 90 | 3.0 | 12.0 | 0.00 | 0.00 | 0.00 | 76 | 1016.5 |
| 20260505194003 | 47 | 85 | 3.0 | 12.0 | 0.00 | 0.00 | 0.00 | 77 | 1016.5 |
| 20260505193503 | 47 | 83 | 4.0 | 12.0 | 0.00 | 0.00 | 0.00 | 77 | 1016.4 |
| 20260505193025 | 47 | 75 | 3.0 | 12.0 | 0.00 | 0.00 | 0.00 | 77 | 1016.4 |
| 20260505192503 | 47 | 56 | 3.0 | 12.0 | 0.00 | 0.00 | 0.00 | 76 | 1016.3 |
| 20260505192004 | 47 | 55 | 3.0 | 12.0 | 0.00 | 0.00 | 0.00 | 75 | 1016.3 |
| 20260505191503 | 47 | 49 | 4.0 | 12.0 | 0.00 | 0.00 | 0.00 | 74 | 1016.3 |
| 20260505191004 | 47 | 57 | 3.0 | 12.0 | 0.00 | 0.00 | 0.00 | 74 | 1016.2 |
| 20260505190503 | 47 | 57 | 3.0 | 12.0 | 0.00 | 0.00 | 0.00 | 74 | 1016.1 |
| 20260505190003 | 47 | 69 | 4.0 | 10.0 | 0.00 | 0.00 | 0.00 | 75 | 1016.1 |
| 20260505185525 | 47 | 91 | 4.0 | 12.0 | 0.00 | 0.00 | 0.00 | 76 | 1016.1 |
| 20260505185002 | 47 | 87 | 3.0 | 12.0 | 0.00 | 0.00 | 0.00 | 75 | 1016.1 |
| 20260505184504 | 48 | 60 | 3.0 | 12.0 | 0.00 | 0.00 | 0.00 | 75 | 1016.1 |
| 20260505184004 | 48 | 35 | 4.0 | 11.0 | 0.00 | 0.00 | 0.00 | 76 | 1016.1 |
| 20260505183504 | 48 | 61 | 4.0 | 11.0 | 0.00 | 0.00 | 0.00 | 76 | 1016.0 |
| 20260505183004 | 48 | 51 | 4.0 | 16.0 | 0.00 | 0.00 | 0.00 | 75 | 1016.1 |
| 20260505182525 | 48 | 29 | 3.0 | 16.0 | 0.00 | 0.00 | 0.00 | 75 | 1016.1 |
| 20260505182003 | 48 | 43 | 3.0 | 8.0 | 0.00 | 0.00 | 0.00 | 76 | 1016.0 |
| 20260505181503 | 48 | 50 | 3.0 | 8.0 | 0.00 | 0.00 | 0.00 | 76 | 1015.9 |
| 20260505181002 | 48 | 53 | 4.0 | 10.0 | 0.00 | 0.00 | 0.00 | 76 | 1015.9 |
| 20260505180503 | 48 | 70 | 4.0 | 10.0 | 0.00 | 0.00 | 0.00 | 76 | 1015.9 |
| 20260505180004 | 48 | 60 | 4.0 | 12.0 | 0.00 | 0.00 | 0.00 | 76 | 1016.0 |
| 20260505175503 | 48 | 65 | 4.0 | 12.0 | 0.00 | 0.00 | 0.00 | 76 | 1016.0 |
| 20260505175002 | 48 | 86 | 4.0 | 18.0 | 0.00 | 0.00 | 0.00 | 75 | 1015.9 |
| 20260505174504 | 48 | 78 | 4.0 | 18.0 | 0.00 | 0.00 | 0.00 | 74 | 1015.9 |
| 20260505174025 | 48 | 60 | 3.0 | 18.0 | 0.00 | 0.00 | 0.00 | 75 | 1016.0 |
| 20260505173525 | 49 | 70 | 4.0 | 15.0 | 0.00 | 0.00 | 0.00 | 74 | 1016.0 |
| 20260505173004 | 48 | 80 | 4.0 | 15.0 | 0.00 | 0.00 | 0.00 | 74 | 1016.0 |
| 20260505172503 | 48 | 80 | 4.0 | 15.0 | 0.00 | 0.00 | 0.00 | 73 | 1016.0 |
| 20260505172004 | 48 | 85 | 4.0 | 12.0 | 0.00 | 0.00 | 0.00 | 72 | 1016.1 |
| 20260505171503 | 49 | 82 | 4.0 | 12.0 | 0.00 | 0.00 | 0.00 | 73 | 1016.0 |
| 20260505171024 | 49 | 73 | 3.0 | 11.0 | 0.00 | 0.00 | 0.00 | 73 | 1016.0 |
| 20260505170504 | 49 | 61 | 3.0 | 11.0 | 0.00 | 0.00 | 0.00 | 72 | 1016.0 |
| 20260505170004 | 49 | 79 | 4.0 | 12.0 | 0.00 | 0.00 | 0.00 | 72 | 1016.0 |
| 20260505165503 | 49 | 85 | 3.0 | 16.0 | 0.00 | 0.00 | 0.00 | 73 | 1016.0 |
| 20260505165003 | 49 | 74 | 3.0 | 16.0 | 0.00 | 0.00 | 0.00 | 73 | 1016.0 |
| 20260505164503 | 49 | 81 | 3.0 | 18.0 | 0.00 | 0.00 | 0.00 | 75 | 1015.9 |
| 20260505164004 | 49 | 78 | 4.0 | 18.0 | 0.00 | 0.00 | 0.00 | 74 | 1016.0 |
| 20260505163504 | 49 | 82 | 4.0 | 18.0 | 0.00 | 0.00 | 0.00 | 74 | 1016.0 |
| 20260505163003 | 49 | 85 | 3.0 | 18.0 | 0.00 | 0.00 | 0.00 | 74 | 1016.0 |
| 20260505162503 | 49 | 84 | 3.0 | 16.0 | 0.00 | 0.00 | 0.00 | 74 | 1015.9 |
| 20260505162004 | 49 | 70 | 4.0 | 15.0 | 0.00 | 0.00 | 0.00 | 72 | 1016.0 |
| 20260505161504 | 49 | 63 | 4.0 | 15.0 | 0.00 | 0.00 | 0.00 | 72 | 1016.0 |
| 20260505161004 | 49 | 79 | 4.0 | 15.0 | 0.00 | 0.00 | 0.00 | 72 | 1015.9 |
| 20260505160502 | 50 | 95 | 4.0 | 15.0 | 0.00 | 0.00 | 0.00 | 73 | 1015.9 |
| 20260505153004 | 50 | 51 | 4.0 | 15.0 | 0.00 | 0.00 | 0.00 | 75 | 1015.4 |
| 20260505152504 | 50 | 44 | 4.0 | 15.0 | 0.00 | 0.00 | 0.00 | 76 | 1015.5 |
| 20260505152004 | 50 | 36 | 5.0 | 15.0 | 0.00 | 0.00 | 0.00 | 76 | 1015.5 |
| 20260505151504 | 50 | 62 | 5.0 | 12.0 | 0.00 | 0.00 | 0.00 | 75 | 1015.4 |
| 20260505151025 | 50 | 85 | 5.0 | 12.0 | 0.00 | 0.00 | 0.00 | 75 | 1015.4 |
| 20260505150503 | 50 | 77 | 5.0 | 14.0 | 0.00 | 0.00 | 0.00 | 74 | 1015.5 |
| 20260505140525 | 52 | 65 | 4.0 | 12.0 | 0.00 | 0.00 | 0.00 | 66 | 1015.2 |
| 20260505125025 | 52 | 79 | 3.0 | 12.0 | 0.00 | 0.00 | 0.00 | 75 | 1015.0 |
| 20260505124504 | 51 | 85 | 3.0 | 12.0 | 0.00 | 0.00 | 0.00 | 74 | 1015.0 |
| 20260505124025 | 51 | 69 | 3.0 | 12.0 | 0.00 | 0.00 | 0.00 | 74 | 1014.9 |
| 20260505123503 | 51 | 65 | 3.0 | 11.0 | 0.00 | 0.00 | 0.00 | 75 | 1014.9 |
| 20260505123004 | 51 | 79 | 3.0 | 10.0 | 0.00 | 0.00 | 0.00 | 75 | 1014.9 |
| 20260505122504 | 51 | 77 | 3.0 | 10.0 | 0.00 | 0.00 | 0.00 | 74 | 1015.0 |
| 20260505122004 | 51 | 64 | 3.0 | 8.0 | 0.00 | 0.00 | 0.00 | 75 | 1014.9 |
| 20260505121504 | 51 | 54 | 3.0 | 8.0 | 0.00 | 0.00 | 0.00 | 75 | 1014.9 |
| 20260505121004 | 51 | 62 | 2.0 | 11.0 | 0.00 | 0.00 | 0.00 | 75 | 1014.8 |
| 20260505120504 | 51 | 75 | 2.0 | 11.0 | 0.00 | 0.00 | 0.00 | 77 | 1014.8 |
| 20260505120003 | 51 | 63 | 3.0 | 11.0 | 0.00 | 0.00 | 0.00 | 77 | 1014.9 |
| 20260505115504 | 51 | 76 | 3.0 | 11.0 | 0.00 | 0.00 | 0.00 | 78 | 1014.8 |
| 20260505115004 | 51 | 77 | 4.0 | 11.0 | 0.00 | 0.00 | 0.00 | 76 | 1014.8 |
| 20260505114504 | 51 | 78 | 4.0 | 14.0 | 0.00 | 0.00 | 0.00 | 74 | 1014.8 |
| 20260505114003 | 51 | 86 | 4.0 | 14.0 | 0.00 | 0.00 | 0.00 | 73 | 1014.8 |
| 20260505113503 | 51 | 77 | 4.0 | 12.0 | 0.00 | 0.00 | 0.00 | 73 | 1014.7 |
| 20260505113004 | 51 | 68 | 5.0 | 12.0 | 0.00 | 0.00 | 0.00 | 75 | 1014.7 |
| 20260505112504 | 51 | 65 | 5.0 | 12.0 | 0.00 | 0.00 | 0.00 | 75 | 1014.6 |
| 20260505112004 | 52 | 65 | 5.0 | 18.0 | 0.00 | 0.00 | 0.00 | 76 | 1014.7 |
| 20260505111504 | 52 | 84 | 4.0 | 18.0 | 0.00 | 0.00 | 0.00 | 78 | 1014.6 |
| 20260505111004 | 52 | 96 | 3.0 | 15.0 | 0.00 | 0.00 | 0.00 | 79 | 1014.6 |
| 20260505110503 | 52 | 67 | 3.0 | 12.0 | 0.00 | 0.00 | 0.00 | 79 | 1014.6 |
| 20260505102003 | 53 | 58 | 2.0 | 12.0 | 0.00 | 0.00 | 0.00 | 73 | 1014.3 |
| 20260505101504 | 53 | 62 | 2.0 | 11.0 | 0.00 | 0.00 | 0.00 | 74 | 1014.3 |
| 20260505101003 | 53 | 74 | 2.0 | 11.0 | 0.00 | 0.00 | 0.00 | 73 | 1014.3 |
| 20260505100525 | 53 | 89 | 1.0 | 7.0 | 0.00 | 0.00 | 0.00 | 73 | 1014.3 |
| 20260505100003 | 53 | 84 | 1.0 | 7.0 | 0.00 | 0.00 | 0.00 | 72 | 1014.2 |
| 20260505095504 | 53 | 70 | 1.0 | 7.0 | 0.00 | 0.00 | 0.00 | 72 | 1014.2 |
| 20260505095003 | 54 | 83 | 0.0 | 8.0 | 0.00 | 0.00 | 0.00 | 71 | 1014.2 |
| 20260505094525 | 54 | 71 | 1.0 | 8.0 | 0.00 | 0.00 | 0.00 | 70 | 1014.2 |
| 20260505094004 | 54 | 39 | 1.0 | 5.0 | 0.00 | 0.00 | 0.00 | 71 | 1014.2 |
| 20260505093525 | 54 | 37 | 1.0 | 5.0 | 0.00 | 0.00 | 0.00 | 70 | 1014.2 |
| 20260505093003 | 54 | 35 | 1.0 | 5.0 | 0.00 | 0.00 | 0.00 | 70 | 1014.2 |
| 20260505092504 | 54 | 52 | 1.0 | 5.0 | 0.00 | 0.00 | 0.00 | 71 | 1014.2 |
| 20260505092004 | 54 | 60 | 1.0 | 5.0 | 0.00 | 0.00 | 0.00 | 70 | 1014.2 |
| 20260505091504 | 54 | 19 | 1.0 | 8.0 | 0.00 | 0.00 | 0.00 | 71 | 1014.2 |
| 20260505091004 | 54 | 12 | 1.0 | 8.0 | 0.00 | 0.00 | 0.00 | 71 | 1014.2 |
| 20260505090503 | 54 | 20 | 1.0 | 8.0 | 0.00 | 0.00 | 0.00 | 71 | 1014.1 |
| 20260505090005 | 54 | 21 | 1.0 | 8.0 | 0.00 | 0.00 | 0.00 | 70 | 1014.1 |
| 20260505085503 | 54 | 43 | 2.0 | 8.0 | 0.00 | 0.00 | 0.00 | 70 | 1014.1 |
| 20260505085003 | 54 | 32 | 2.0 | 8.0 | 0.00 | 0.00 | 0.00 | 72 | 1014.1 |
| 20260505084504 | 54 | 19 | 3.0 | 7.0 | 0.00 | 0.00 | 0.00 | 70 | 1014.1 |
| 20260505084004 | 54 | 26 | 3.0 | 7.0 | 0.00 | 0.00 | 0.00 | 70 | 1014.2 |
| 20260505083504 | 54 | 27 | 3.0 | 7.0 | 0.00 | 0.00 | 0.00 | 69 | 1014.1 |
| 20260505083005 | 54 | 30 | 2.0 | 7.0 | 0.00 | 0.00 | 0.00 | 70 | 1014.1 |
| 20260505082504 | 55 | 27 | 1.0 | 7.0 | 0.00 | 0.00 | 0.00 | 70 | 1014.2 |
| 20260505082004 | 54 | 0 | 0.0 | 7.0 | 0.00 | 0.00 | 0.00 | 73 | 1014.1 |
| 20260505081503 | 53 | 0 | 7.0 | 7.0 | 0.00 | 0.00 | 0.00 | 73 | 1014.1 |
| 20260505081004 | 53 | 0 | 3.0 | 3.0 | 0.00 | 0.00 | 0.00 | 73 | 1014.2 |
| 20260505080524 | 53 | 0 | 3.0 | 3.0 | 0.00 | 0.00 | 0.00 | 74 | 1014.2 |
| 20260505080004 | 52 | 0 | 1.0 | 1.0 | 0.00 | 0.00 | 0.00 | 75 | 1014.2 |
| 20260505075503 | 52 | 0 | 1.0 | 1.0 | 0.00 | 0.00 | 0.00 | 75 | 1014.2 |
| 20260505075003 | 51 | 0 | 1.0 | 1.0 | 0.00 | 0.00 | 0.00 | 75 | 1014.2 |
| 20260505074503 | 51 | 0 | 1.0 | 1.0 | 0.00 | 0.00 | 0.00 | 75 | 1014.2 |
| 20260505074004 | 51 | 0 | 0.0 | 0.0 | 0.00 | 0.00 | 0.00 | 75 | 1014.2 |
| 20260505073525 | 51 | 0 | 0.0 | 0.0 | 0.00 | 0.00 | 0.00 | 76 | 1014.2 |
| 20260505073004 | 50 | 0 | 1.0 | 1.0 | 0.00 | 0.00 | 0.00 | 76 | 1014.2 |
| 20260505072503 | 50 | 0 | 1.0 | 1.0 | 0.00 | 0.00 | 0.00 | 77 | 1014.2 |
| 20260505072004 | 49 | 0 | 1.0 | 1.0 | 0.00 | 0.00 | 0.00 | 81 | 1014.2 |
| 20260505071503 | 48 | 0 | 1.0 | 1.0 | 0.00 | 0.00 | 0.00 | 82 | 1014.3 |
| 20260505071003 | 47 | 0 | 1.0 | 1.0 | 0.00 | 0.00 | 0.00 | 83 | 1014.4 |
| 20260505070503 | 46 | 192 | 0.0 | 3.0 | 0.00 | 0.00 | 0.00 | 84 | 1014.3 |
| 20260505070004 | 46 | 194 | 0.0 | 3.0 | 0.00 | 0.00 | 0.00 | 85 | 1014.3 |
| 20260505065504 | 46 | 198 | 1.0 | 3.0 | 0.00 | 0.00 | 0.00 | 85 | 1014.3 |
| 20260505065024 | 45 | 193 | 0.0 | 4.0 | 0.00 | 0.00 | 0.00 | 86 | 1014.3 |
| 20260505064503 | 45 | 0 | 0.0 | 4.0 | 0.00 | 0.00 | 0.00 | 86 | 1014.3 |
| 20260505064004 | 45 | 0 | 0.0 | 3.0 | 0.00 | 0.00 | 0.00 | 87 | 1014.2 |
| 20260505063503 | 44 | 180 | 0.0 | 3.0 | 0.00 | 0.00 | 0.00 | 87 | 1014.3 |
| 20260505063003 | 44 | 161 | 1.0 | 7.0 | 0.00 | 0.00 | 0.00 | 87 | 1014.2 |
| 20260505062504 | 44 | 175 | 1.0 | 7.0 | 0.00 | 0.00 | 0.00 | 87 | 1014.3 |
| 20260505062004 | 44 | 200 | 1.0 | 4.0 | 0.00 | 0.00 | 0.00 | 88 | 1014.3 |